createdAt,value
2022-11-14T00:00:51.325Z,102101.31
2022-11-14T00:03:37.650Z,102103.31
2022-11-14T00:06:25.378Z,102098.53
2022-11-14T00:09:11.822Z,102098.88
2022-11-14T00:11:58.045Z,102100.50
2022-11-14T00:14:44.456Z,102094.91
2022-11-14T00:46:42.383Z,102064.72
2022-11-14T00:49:28.287Z,102070.34
2022-11-14T00:52:14.625Z,102058.28
2022-11-14T00:55:01.107Z,102063.91
2022-11-14T00:57:47.254Z,102062.22
2022-11-14T01:00:33.658Z,102051.00
2022-11-14T01:03:21.235Z,102051.00
2022-11-14T01:06:07.994Z,102048.19
2022-11-14T01:08:54.446Z,102046.22
2022-11-14T01:11:40.578Z,102044.56
2022-11-14T01:14:26.777Z,102045.75
2022-11-14T01:46:35.054Z,102009.59
2022-11-14T01:49:36.887Z,102010.78
2022-11-14T01:52:23.904Z,102006.78
2022-11-14T01:55:10.221Z,102013.59
2022-11-14T01:57:56.215Z,102015.22
2022-11-14T02:00:42.687Z,102010.78
2022-11-14T02:03:30.306Z,102006.31
2022-11-14T02:06:17.092Z,102005.47
2022-11-14T02:09:04.267Z,101995.91
2022-11-14T02:11:50.376Z,101996.75
2022-11-14T02:14:36.898Z,101992.25
2022-11-14T02:17:29.652Z,101987.81
2022-11-14T02:20:18.715Z,101982.22
2022-11-14T02:23:05.063Z,101972.97
2022-11-14T02:25:51.200Z,101964.91
2022-11-14T02:28:37.384Z,101967.34
2022-11-14T02:31:23.931Z,101962.91
2022-11-14T02:34:10.225Z,101953.69
2022-11-14T02:36:57.746Z,101955.31
2022-11-14T02:39:43.952Z,101950.88
2022-11-14T02:42:30.177Z,101955.31
2022-11-14T02:45:16.482Z,101943.72
2022-11-14T02:48:02.948Z,101946.53
2022-11-14T02:50:49.319Z,101945.72
2022-11-14T02:53:37.042Z,101942.44
2022-11-14T02:56:23.326Z,101937.66
2022-11-14T02:59:09.501Z,101937.66
2022-11-14T03:45:54.327Z,101893.44
2022-11-14T03:48:40.868Z,101892.59
2022-11-14T03:51:27.011Z,101890.97
2022-11-14T03:54:13.307Z,101885.38
2022-11-14T03:56:59.221Z,101885.38
2022-11-14T03:59:45.594Z,101884.53
2022-11-14T04:46:30.354Z,101854.94
2022-11-14T04:49:16.511Z,101858.94
2022-11-14T04:52:02.877Z,101858.94
2022-11-14T04:54:49.258Z,101850.88
2022-11-14T04:57:35.537Z,101850.06
2022-11-14T05:32:28.384Z,101814.47
2022-11-14T05:35:14.997Z,101819.41
2022-11-14T05:38:01.627Z,101807.50
2022-11-14T05:40:47.715Z,101801.88
2022-11-14T05:43:34.208Z,101795.41
2022-11-14T05:46:20.506Z,101792.28
2022-11-14T05:49:08.104Z,101797.91
2022-11-14T05:51:54.330Z,101789.94
2022-11-14T05:54:40.599Z,101795.56
2022-11-14T05:57:27.092Z,101796.72
2022-11-14T06:00:14.281Z,101799.53
2022-11-14T06:03:00.490Z,101814.38
2022-11-14T06:05:48.272Z,101800.34
2022-11-14T06:08:34.646Z,101799.53
2022-11-14T06:11:20.952Z,101805.16
2022-11-14T06:14:10.945Z,101800.34
2022-11-14T06:16:57.567Z,101791.56
2022-11-14T06:19:43.839Z,101789.94
2022-11-14T06:22:31.575Z,101784.31
2022-11-14T06:25:17.870Z,101782.69
2022-11-14T06:28:04.217Z,101789.13
2022-11-14T06:30:50.449Z,101789.13
2022-11-14T06:33:37.306Z,101792.75
2022-11-14T06:36:23.897Z,101794.72
2022-11-14T06:39:11.647Z,101794.72
2022-11-14T06:41:57.927Z,101802.78
2022-11-14T06:44:44.237Z,101801.16
2022-11-14T06:47:30.908Z,101814.38
2022-11-14T06:50:17.281Z,101799.53
2022-11-14T06:53:03.350Z,101818.81
2022-11-14T06:55:58.110Z,101818.00
2022-11-14T06:58:45.712Z,101807.94
2022-11-14T07:01:31.868Z,101819.63
2022-11-14T07:04:18.562Z,101813.56
2022-11-14T07:07:04.539Z,101801.16
2022-11-14T07:09:50.959Z,101810.75
2022-11-14T07:12:38.733Z,101800.34
2022-11-14T07:15:25.130Z,101800.34
2022-11-14T07:18:11.482Z,101803.50
2022-11-14T07:20:58.396Z,101803.16
2022-11-14T07:23:44.703Z,101814.38
2022-11-14T07:26:31.036Z,101803.50
2022-11-14T07:29:18.704Z,101802.69
2022-11-14T07:32:04.960Z,101803.50
2022-11-14T07:34:51.046Z,101805.16
2022-11-14T07:37:37.500Z,101791.34
2022-11-14T07:40:23.789Z,101797.91
2022-11-14T07:43:10.239Z,101786.69
2022-11-14T07:46:01.022Z,101783.88
2022-11-14T07:48:47.646Z,101782.69
2022-11-14T07:51:33.935Z,101788.31
2022-11-14T07:54:20.319Z,101778.25
2022-11-14T07:57:06.713Z,101775.44
2022-11-14T07:59:53.010Z,101772.97
2022-11-14T08:02:40.634Z,101781.06
2022-11-14T08:05:26.768Z,101778.25
2022-11-14T08:08:13.306Z,101771.47
2022-11-14T08:10:59.483Z,101771.47
2022-11-14T08:13:45.673Z,101763.41
2022-11-14T08:16:31.896Z,101765.84
2022-11-14T08:19:19.668Z,101773.09
2022-11-14T08:22:05.877Z,101768.31
2022-11-14T08:24:52.166Z,101771.47
2022-11-14T08:27:38.605Z,101769.13
2022-11-14T08:30:24.889Z,101756.25
2022-11-14T08:33:11.103Z,101765.84
2022-11-14T08:36:00.904Z,101749.00
2022-11-14T08:38:46.942Z,101761.88
2022-11-14T08:41:33.191Z,101762.69
2022-11-14T08:44:19.729Z,101766.66
2022-11-14T08:47:06.156Z,101765.84
2022-11-14T08:49:52.423Z,101753.81
2022-11-14T08:52:40.044Z,101753.81
2022-11-14T08:55:26.367Z,101737.78
2022-11-14T08:58:12.744Z,101743.41
2022-11-14T09:01:02.382Z,101749.00
2022-11-14T09:03:48.948Z,101743.41
2022-11-14T09:06:35.129Z,101745.03
2022-11-14T09:09:22.901Z,101746.66
2022-11-14T09:12:09.201Z,101739.06
2022-11-14T09:14:55.457Z,101737.06
2022-11-14T09:17:41.714Z,101737.34
2022-11-14T09:20:34.040Z,101745.16
2022-11-14T09:23:22.838Z,101741.97
2022-11-14T09:26:10.511Z,101740.34
2022-11-14T09:28:56.759Z,101743.16
2022-11-14T09:31:43.109Z,101739.53
2022-11-14T09:34:29.319Z,101757.19
2022-11-14T09:37:15.470Z,101761.19
2022-11-14T09:40:01.727Z,101745.03
2022-11-14T09:42:56.391Z,101740.59
2022-11-14T09:45:43.640Z,101742.22
2022-11-14T09:48:30.441Z,101733.81
2022-11-14T09:51:17.584Z,101736.59
2022-11-14T09:54:06.283Z,101722.56
2022-11-14T09:56:52.639Z,101723.38
2022-11-14T09:59:40.226Z,101722.56
2022-11-14T10:02:31.852Z,101722.56
2022-11-14T10:05:19.966Z,101716.97
2022-11-14T10:08:09.983Z,101710.53
2022-11-14T10:10:56.807Z,101716.97
2022-11-14T10:13:50.695Z,101712.16
2022-11-14T10:16:40.559Z,101713.78
2022-11-14T10:19:29.840Z,101704.56
2022-11-14T10:22:19.659Z,101703.75
2022-11-14T10:25:08.944Z,101696.94
2022-11-14T10:28:05.215Z,101697.31
2022-11-14T10:30:52.483Z,101687.28
2022-11-14T10:33:47.132Z,101683.88
2022-11-14T10:36:42.505Z,101676.72
2022-11-14T10:39:30.657Z,101687.50
2022-11-14T10:42:25.557Z,101684.69
2022-11-14T10:45:15.023Z,101685.16
2022-11-14T10:48:02.465Z,101666.31
2022-11-14T10:50:52.611Z,101672.78
2022-11-14T10:53:44.502Z,101675.59
2022-11-14T10:56:31.074Z,101662.38
2022-11-14T10:59:17.033Z,101655.59
2022-11-14T11:02:03.379Z,101653.59
2022-11-14T11:04:49.644Z,101652.78
2022-11-14T11:07:54.964Z,101643.19
2022-11-14T11:11:00.483Z,101641.91
2022-11-14T11:13:52.075Z,101622.25
2022-11-14T11:16:38.176Z,101636.75
2022-11-14T11:19:24.981Z,101639.09
2022-11-14T11:22:24.983Z,101645.88
2022-11-14T11:25:25.331Z,101641.44
2022-11-14T11:28:15.522Z,101642.16
2022-11-14T11:31:02.354Z,101628.56
2022-11-14T11:33:48.614Z,101619.72
2022-11-14T11:36:40.960Z,101623.91
2022-11-14T11:39:28.418Z,101618.63
2022-11-14T11:42:16.716Z,101610.56
2022-11-14T11:45:03.676Z,101608.47
2022-11-14T11:47:51.402Z,101609.28
2022-11-14T11:50:37.217Z,101607.66
2022-11-14T11:53:24.313Z,101610.91
2022-11-14T11:56:11.394Z,101607.75
2022-11-14T11:59:00.223Z,101609.38
2022-11-14T12:01:46.712Z,101606.56
2022-11-14T12:04:33.023Z,101609.38
2022-11-14T12:07:19.949Z,101598.97
2022-11-14T12:10:10.944Z,101603.78
2022-11-14T12:13:28.062Z,101604.94
2022-11-14T12:16:19.247Z,101604.13
2022-11-14T12:19:23.192Z,101600.50
2022-11-14T12:22:13.067Z,101593.28
2022-11-14T12:25:09.016Z,101593.28
2022-11-14T12:27:59.325Z,101594.91
2022-11-14T12:30:47.183Z,101590.91
2022-11-14T12:33:35.436Z,101582.97
2022-11-14T12:36:23.955Z,101586.22
2022-11-14T12:39:20.649Z,101588.59
2022-11-14T12:42:06.973Z,101589.41
2022-11-14T12:44:53.422Z,101590.56
2022-11-14T12:47:39.743Z,101573.38
2022-11-14T12:50:35.015Z,101579.00
2022-11-14T12:53:39.997Z,101577.38
2022-11-14T12:56:51.201Z,101575.25
2022-11-14T12:59:40.698Z,101572.44
2022-11-14T13:02:37.535Z,101570.81
2022-11-14T13:05:25.031Z,101566.84
2022-11-14T13:08:17.217Z,101561.22
2022-11-14T13:11:16.223Z,101554.78
2022-11-14T13:14:20.412Z,101552.81
2022-11-14T13:17:39.591Z,101558.88
2022-11-14T13:20:49.576Z,101554.06
2022-11-14T13:23:55.937Z,101550.81
2022-11-14T13:26:50.286Z,101552.44
2022-11-14T13:29:54.594Z,101553.25
2022-11-14T13:32:54.240Z,101548.81
2022-11-14T13:35:48.446Z,101542.84
2022-11-14T13:38:53.590Z,101543.22
2022-11-14T13:41:55.184Z,101539.22
2022-11-14T13:44:49.695Z,101537.16
2022-11-14T13:47:43.495Z,101536.34
2022-11-14T13:50:30.933Z,101533.88
2022-11-14T13:53:19.127Z,101534.72
2022-11-14T13:56:07.857Z,101540.75
2022-11-14T13:59:07.954Z,101530.81
2022-11-14T14:02:02.890Z,101534.78
2022-11-14T14:04:51.503Z,101534.78
2022-11-14T14:07:42.006Z,101522.38
2022-11-14T14:10:29.622Z,101524.38
2022-11-14T14:13:19.466Z,101521.22
2022-11-14T14:16:08.251Z,101518.44
2022-11-14T14:18:56.892Z,101510.00
2022-11-14T14:21:44.993Z,101508.84
2022-11-14T14:24:35.974Z,101510.47
2022-11-14T14:27:23.930Z,101509.66
2022-11-14T14:30:10.612Z,101506.03
2022-11-14T14:33:04.803Z,101512.91
2022-11-14T14:35:51.661Z,101503.66
2022-11-14T14:38:38.015Z,101499.69
2022-11-14T14:41:24.332Z,101499.69
2022-11-14T14:44:13.279Z,101492.44
2022-11-14T14:46:59.782Z,101486.81
2022-11-14T14:49:47.539Z,101483.66
2022-11-14T14:52:34.359Z,101483.66
2022-11-14T14:55:23.521Z,101484.47
2022-11-14T14:58:22.275Z,101488.94
2022-11-14T15:01:10.803Z,101469.88
2022-11-14T15:03:58.133Z,101480.50
2022-11-14T15:06:47.010Z,101487.75
2022-11-14T15:09:33.400Z,101482.13
2022-11-14T15:12:19.722Z,101475.59
2022-11-14T15:15:06.614Z,101482.13
2022-11-14T15:17:52.997Z,101476.16
2022-11-14T15:20:39.010Z,101478.16
2022-11-14T15:23:26.758Z,101480.13
2022-11-14T15:26:16.993Z,101478.16
2022-11-14T15:29:07.510Z,101483.75
2022-11-14T15:31:54.074Z,101483.75
2022-11-14T15:34:40.502Z,101465.75
2022-11-14T15:37:28.080Z,101465.75
2022-11-14T15:40:19.384Z,101458.50
2022-11-14T15:43:24.314Z,101464.56
2022-11-14T15:46:24.830Z,101441.13
2022-11-14T15:49:11.494Z,101452.53
2022-11-14T15:51:58.019Z,101464.56
2022-11-14T15:54:43.904Z,101457.31
2022-11-14T15:57:32.238Z,101463.75
2022-11-14T16:00:18.943Z,101456.13
2022-11-14T16:03:05.032Z,101452.44
2022-11-14T16:05:51.002Z,101454.78
2022-11-14T16:08:37.342Z,101458.94
2022-11-14T16:11:23.779Z,101461.41
2022-11-14T16:14:11.463Z,101466.66
2022-11-14T16:16:57.465Z,101462.22
2022-11-14T16:19:43.919Z,101467.84
2022-11-14T16:22:30.270Z,101469.47
2022-11-14T16:25:17.490Z,101465.03
2022-11-14T16:28:04.038Z,101471.81
2022-11-14T16:30:51.673Z,101467.84
2022-11-14T16:33:38.044Z,101465.84
2022-11-14T16:36:24.332Z,101453.81
2022-11-14T16:39:11.409Z,101455.44
2022-11-14T16:42:00.489Z,101455.44
2022-11-14T16:44:50.593Z,101439.78
2022-11-14T16:47:38.726Z,101451.00
2022-11-14T16:50:24.675Z,101448.19
2022-11-14T16:53:10.871Z,101447.00
2022-11-14T16:55:57.152Z,101457.44
2022-11-14T16:58:43.583Z,101465.03
2022-11-14T17:01:29.926Z,101467.84
2022-11-14T17:04:17.745Z,101469.03
2022-11-14T17:07:04.281Z,101467.84
2022-11-14T17:09:50.554Z,101462.22
2022-11-14T17:12:36.860Z,101463.41
2022-11-14T17:15:23.204Z,101463.84
2022-11-14T17:18:09.376Z,101462.22
2022-11-14T17:20:57.201Z,101450.19
2022-11-14T17:23:43.523Z,101439.78
2022-11-14T17:26:29.788Z,101442.56
2022-11-14T17:29:16.178Z,101451.00
2022-11-14T17:32:04.119Z,101456.63
2022-11-14T17:34:50.442Z,101451.00
2022-11-14T17:37:37.974Z,101445.91
2022-11-14T17:40:24.019Z,101445.72
2022-11-14T17:43:10.201Z,101442.19
2022-11-14T17:45:57.063Z,101445.47
2022-11-14T17:48:43.418Z,101435.50
2022-11-14T17:51:29.452Z,101436.31
2022-11-14T17:54:17.211Z,101437.94
2022-11-14T17:57:03.483Z,101433.94
2022-11-14T17:59:49.706Z,101434.78
2022-11-14T18:02:35.923Z,101430.00
2022-11-14T18:05:22.366Z,101423.19
2022-11-14T18:08:08.373Z,101420.38
2022-11-14T18:10:55.935Z,101426.00
2022-11-14T18:13:42.131Z,101426.00
2022-11-14T18:16:44.542Z,101422.00
2022-11-14T18:19:34.586Z,101412.78
2022-11-14T18:22:20.789Z,101413.59
2022-11-14T18:25:08.084Z,101418.03
2022-11-14T18:27:55.788Z,101415.22
2022-11-14T18:30:43.073Z,101412.41
2022-11-14T18:33:28.996Z,101405.19
2022-11-14T18:36:15.306Z,101401.19
2022-11-14T18:39:01.614Z,101395.56
2022-11-14T18:41:47.881Z,101388.34
2022-11-14T18:44:35.456Z,101395.56
2022-11-14T18:47:21.731Z,101388.34
2022-11-14T18:50:08.370Z,101389.16
2022-11-14T18:52:54.510Z,101387.16
2022-11-14T18:55:41.179Z,101387.97
2022-11-14T18:58:27.292Z,101384.34
2022-11-14T19:01:15.548Z,101392.75
2022-11-14T19:04:02.225Z,101381.53
2022-11-14T19:06:48.851Z,101375.94
2022-11-14T19:09:35.082Z,101383.53
2022-11-14T19:12:22.791Z,101384.34
2022-11-14T19:15:11.068Z,101384.34
2022-11-14T19:17:58.412Z,101387.16
2022-11-14T19:20:46.665Z,101378.72
2022-11-14T19:23:33.237Z,101377.09
2022-11-14T19:26:20.589Z,101371.50
2022-11-14T19:29:09.386Z,101367.50
2022-11-14T19:31:55.602Z,101360.28
2022-11-14T19:34:43.362Z,101350.66
2022-11-14T19:37:29.505Z,101345.06
2022-11-14T19:40:17.051Z,101357.09
2022-11-14T19:43:07.123Z,101351.47
2022-11-14T19:45:53.022Z,101353.47
2022-11-14T19:48:39.499Z,101352.28
2022-11-14T19:51:26.943Z,101347.84
2022-11-14T19:54:13.002Z,101340.25
2022-11-14T19:56:59.404Z,101339.44
2022-11-14T19:59:45.600Z,101345.06
2022-11-14T20:02:31.842Z,101343.44
2022-11-14T20:05:18.260Z,101341.81
2022-11-14T20:08:06.445Z,101346.25
2022-11-14T20:10:56.381Z,101337.81
2022-11-14T20:13:44.001Z,101345.06
2022-11-14T20:16:31.017Z,101337.81
2022-11-14T20:19:17.139Z,101349.03
2022-11-14T20:22:03.608Z,101350.66
2022-11-14T20:24:51.233Z,101361.91
2022-11-14T20:27:37.513Z,101354.28
2022-11-14T20:30:23.964Z,101353.47
2022-11-14T20:33:10.008Z,101359.09
2022-11-14T20:35:56.547Z,101356.28
2022-11-14T20:38:44.205Z,101355.47
2022-11-14T20:41:31.914Z,101347.03
2022-11-14T20:44:18.871Z,101348.66
2022-11-14T20:47:08.493Z,101333.81
2022-11-14T20:49:57.249Z,101339.44
2022-11-14T20:52:43.555Z,101338.63
2022-11-14T20:55:29.563Z,101337.81
2022-11-14T20:58:17.736Z,101341.44
2022-11-14T21:01:03.900Z,101339.44
2022-11-14T21:03:50.305Z,101345.06
2022-11-14T21:06:36.422Z,101342.25
2022-11-14T21:09:22.761Z,101347.84
2022-11-14T21:12:09.352Z,101333.81
2022-11-14T21:14:56.935Z,101325.69
2022-11-14T21:17:43.211Z,101323.41
2022-11-14T21:20:29.385Z,101321.41
2022-11-14T21:23:15.647Z,101329.84
2022-11-14T21:26:02.688Z,101329.84
2022-11-14T21:28:50.408Z,101328.22
2022-11-14T21:31:38.197Z,101317.81
2022-11-14T21:34:24.130Z,101322.59
2022-11-14T21:37:10.478Z,101317.00
2022-11-14T21:39:56.699Z,101324.22
2022-11-14T21:42:42.955Z,101308.22
2022-11-14T21:45:29.326Z,101313.00
2022-11-14T21:48:17.055Z,101305.75
2022-11-14T21:51:03.875Z,101310.19
2022-11-14T21:53:50.558Z,101299.34
2022-11-14T21:56:36.948Z,101298.97
2022-11-14T21:59:27.328Z,101300.16
2022-11-14T22:02:36.248Z,101298.53
2022-11-14T22:05:24.007Z,101300.16
2022-11-14T22:08:10.174Z,101300.16
2022-11-14T22:11:01.019Z,101297.34
2022-11-14T22:13:47.286Z,101302.97
2022-11-14T22:16:33.514Z,101300.97
2022-11-14T22:19:19.969Z,101300.16
2022-11-14T22:22:07.842Z,101301.78
2022-11-14T22:24:53.916Z,101305.75
2022-11-14T22:27:40.133Z,101302.97
2022-11-14T22:30:26.439Z,101300.16
2022-11-14T22:33:12.821Z,101301.34
2022-11-14T22:36:03.397Z,101302.13
2022-11-14T22:38:51.235Z,101302.13
2022-11-14T22:41:37.907Z,101292.91
2022-11-14T22:44:24.193Z,101292.91
2022-11-14T22:47:10.654Z,101297.34
2022-11-14T22:49:56.971Z,101287.28
2022-11-14T22:52:43.315Z,101300.16
2022-11-14T22:55:31.001Z,101297.34
2022-11-14T22:58:17.032Z,101292.91
2022-11-14T23:01:03.358Z,101286.13
2022-11-14T23:03:49.785Z,101294.53
2022-11-14T23:06:36.311Z,101284.13
2022-11-14T23:09:22.549Z,101294.53
2022-11-14T23:12:10.240Z,101290.91
2022-11-14T23:14:56.399Z,101277.69
2022-11-14T23:41:14.922Z,101271.19
2022-11-14T23:44:01.248Z,101267.22
2022-11-14T23:46:47.635Z,101256.00
2022-11-14T23:49:33.908Z,101267.22
2022-11-14T23:52:20.340Z,101255.91
2022-11-14T23:55:07.136Z,101249.56
2022-11-14T23:57:54.995Z,101243.94
